createdAt,value
2023-05-21T00:03:28.166Z,85.51
2023-05-21T00:08:30.014Z,85.95
2023-05-21T00:13:31.645Z,85.96
2023-05-21T00:18:34.325Z,85.89
2023-05-21T00:23:37.727Z,86.25
2023-05-21T00:28:39.409Z,86.13
2023-05-21T00:33:41.016Z,85.79
2023-05-21T00:38:46.278Z,86.35
2023-05-21T00:43:47.964Z,86.17
2023-05-21T00:48:50.978Z,85.70
2023-05-21T00:53:53.305Z,85.67
2023-05-21T00:58:57.235Z,86.75
2023-05-21T01:04:01.743Z,85.54
2023-05-21T01:09:05.572Z,84.81
2023-05-21T01:14:11.080Z,84.65
2023-05-21T01:19:18.056Z,84.96
2023-05-21T01:24:19.918Z,85.08
2023-05-21T01:29:21.785Z,85.98
2023-05-21T01:34:28.161Z,85.08
2023-05-21T01:39:38.635Z,85.98
2023-05-21T01:44:41.082Z,86.61
2023-05-21T01:49:42.816Z,87.51
2023-05-21T01:54:44.506Z,88.09
2023-05-21T01:59:47.803Z,87.53
2023-05-21T02:04:50.118Z,88.04
2023-05-21T02:09:51.775Z,87.51
2023-05-21T02:14:53.412Z,88.10
2023-05-21T02:19:55.026Z,87.59
2023-05-21T02:24:57.326Z,88.66
2023-05-21T02:29:59.004Z,88.66
2023-05-21T02:35:01.365Z,87.48
2023-05-21T02:40:05.897Z,86.73
2023-05-21T02:45:09.378Z,87.09
2023-05-21T02:50:13.906Z,87.68
2023-05-21T02:55:42.110Z,87.80
2023-05-21T03:00:43.773Z,88.65
2023-05-21T03:05:45.870Z,89.00
2023-05-21T03:10:47.513Z,89.21
2023-05-21T03:15:49.197Z,89.37
2023-05-21T03:20:50.860Z,88.70
2023-05-21T03:25:52.499Z,88.90
2023-05-21T03:30:54.754Z,88.24
2023-05-21T03:36:08.286Z,88.30
2023-05-21T03:41:12.572Z,88.44
2023-05-21T03:46:16.712Z,89.24
2023-05-21T03:51:38.328Z,88.74
2023-05-21T03:56:40.579Z,87.71
2023-05-21T04:01:42.670Z,88.23
2023-05-21T04:06:48.287Z,89.17
2023-05-21T04:11:50.024Z,88.47
2023-05-21T04:16:51.663Z,88.89
2023-05-21T04:21:53.306Z,87.82
2023-05-21T04:26:56.004Z,87.45
2023-05-21T04:31:57.901Z,86.90
2023-05-21T04:37:00.476Z,86.24
2023-05-21T04:42:03.272Z,84.88
2023-05-21T04:47:05.253Z,84.34
2023-05-21T04:52:08.282Z,84.04
2023-05-21T04:57:09.938Z,83.30
2023-05-21T05:02:12.294Z,82.89
2023-05-21T05:07:15.582Z,82.34
2023-05-21T05:12:17.213Z,81.83
2023-05-21T05:17:18.853Z,80.75
2023-05-21T05:22:20.658Z,80.45
2023-05-21T05:27:22.512Z,79.91
2023-05-21T05:32:24.852Z,79.53
2023-05-21T05:37:26.784Z,79.14
2023-05-21T05:42:28.624Z,79.30
2023-05-21T05:47:31.934Z,78.57
2023-05-21T05:52:33.855Z,77.86
2023-05-21T05:57:36.061Z,77.36
2023-05-21T06:02:43.353Z,77.07
2023-05-21T06:07:45.712Z,76.62
2023-05-21T06:12:47.433Z,76.09
2023-05-21T06:17:50.365Z,75.54
2023-05-21T06:22:52.130Z,75.50
2023-05-21T06:27:53.931Z,74.69
2023-05-21T06:33:00.373Z,74.80
2023-05-21T06:38:03.174Z,74.72
2023-05-21T06:43:05.544Z,74.47
2023-05-21T06:48:36.126Z,74.22
2023-05-21T06:53:37.848Z,73.95
2023-05-21T06:58:39.532Z,73.77
2023-05-21T07:03:41.265Z,74.18
2023-05-21T07:08:43.731Z,73.74
2023-05-21T07:13:45.426Z,73.59
2023-05-21T07:18:47.428Z,73.94
2023-05-21T07:23:49.307Z,72.99
2023-05-21T07:28:51.005Z,73.04
2023-05-21T07:33:52.889Z,72.59
2023-05-21T07:38:59.004Z,71.83
2023-05-21T07:44:01.684Z,71.58
2023-05-21T07:49:03.477Z,70.87
2023-05-21T07:54:05.592Z,71.04
2023-05-21T07:59:11.679Z,70.12
2023-05-21T08:04:16.578Z,70.62
2023-05-21T08:09:19.360Z,70.58
2023-05-21T08:14:21.517Z,70.00
2023-05-21T08:19:23.331Z,69.91
2023-05-21T08:24:26.441Z,69.88
2023-05-21T08:29:28.316Z,69.69
2023-05-21T08:34:30.048Z,69.29
2023-05-21T08:39:46.334Z,69.04
2023-05-21T08:44:52.309Z,68.96
2023-05-21T08:49:55.839Z,68.52
2023-05-21T08:54:58.042Z,68.82
2023-05-21T09:00:00.269Z,68.57
2023-05-21T09:05:04.217Z,67.73
2023-05-21T09:10:14.761Z,67.79
2023-05-21T09:15:17.580Z,67.64
2023-05-21T09:20:26.449Z,67.69
2023-05-21T09:25:33.291Z,67.23
2023-05-21T09:30:45.633Z,66.83
2023-05-21T09:35:47.663Z,67.04
2023-05-21T09:40:50.862Z,66.86
2023-05-21T09:45:54.665Z,66.37
2023-05-21T09:51:17.345Z,65.83
2023-05-21T09:56:23.626Z,64.26
2023-05-21T10:01:26.340Z,64.19
2023-05-21T10:06:31.039Z,63.49
2023-05-21T10:11:33.803Z,61.56
2023-05-21T10:16:36.641Z,61.17
2023-05-21T10:21:39.876Z,59.84
2023-05-21T10:26:41.801Z,58.97
2023-05-21T10:31:46.576Z,58.79
2023-05-21T10:36:49.370Z,58.66
2023-05-21T10:42:08.971Z,60.35
2023-05-21T10:47:16.686Z,61.82
2023-05-21T10:52:39.953Z,57.80
2023-05-21T10:58:32.547Z,57.68
2023-05-21T11:03:37.436Z,54.30
2023-05-21T11:08:47.542Z,54.16
2023-05-21T11:13:49.730Z,54.00
2023-05-21T11:18:51.452Z,54.50
2023-05-21T11:24:06.627Z,53.35
2023-05-21T11:29:10.733Z,51.88
2023-05-21T11:34:28.452Z,52.89
2023-05-21T11:39:30.214Z,53.28
2023-05-21T11:44:45.649Z,52.47
2023-05-21T11:49:48.055Z,51.25
2023-05-21T11:54:57.327Z,50.43
2023-05-21T12:00:01.446Z,49.93
2023-05-21T12:05:03.914Z,51.74
2023-05-21T12:10:06.718Z,52.77
2023-05-21T12:15:10.206Z,53.17
2023-05-21T12:20:15.288Z,55.03
2023-05-21T12:25:23.082Z,56.28
2023-05-21T12:30:25.645Z,55.59
2023-05-21T12:35:27.495Z,55.41
2023-05-21T12:40:39.564Z,55.65
2023-05-21T12:45:43.544Z,55.22
2023-05-21T12:50:45.488Z,55.30
2023-05-21T12:55:47.237Z,55.14
2023-05-21T13:00:48.959Z,54.86
2023-05-21T13:06:01.344Z,55.45
2023-05-21T13:11:03.879Z,56.04
2023-05-21T13:16:05.780Z,57.00
2023-05-21T13:21:07.487Z,57.18
2023-05-21T13:26:09.842Z,56.28
2023-05-21T13:31:12.264Z,55.70
2023-05-21T13:36:14.014Z,56.54
2023-05-21T13:41:15.748Z,56.32
2023-05-21T13:46:17.489Z,56.84
2023-05-21T13:51:37.027Z,58.34
2023-05-21T13:56:40.173Z,51.19
2023-05-21T14:01:41.962Z,48.62
2023-05-21T14:06:43.614Z,49.96
2023-05-21T14:11:45.575Z,50.61
2023-05-21T14:16:47.427Z,51.98
2023-05-21T14:21:51.965Z,51.86
2023-05-21T14:26:53.623Z,50.66
2023-05-21T14:31:55.372Z,50.36
2023-05-21T14:36:57.051Z,50.44
2023-05-21T14:41:58.730Z,49.52
2023-05-21T14:47:00.367Z,48.75
2023-05-21T14:52:02.128Z,49.43
2023-05-21T14:57:04.370Z,48.56
2023-05-21T15:02:06.058Z,50.08
2023-05-21T15:07:07.791Z,51.21
2023-05-21T15:12:09.422Z,51.31
2023-05-21T15:17:11.107Z,52.23
2023-05-21T15:22:12.694Z,53.84
2023-05-21T15:27:14.411Z,54.03
2023-05-21T15:32:16.075Z,53.54
2023-05-21T15:37:18.465Z,54.00
2023-05-21T15:42:20.140Z,54.30
2023-05-21T15:47:22.193Z,54.54
2023-05-21T15:52:23.973Z,53.52
2023-05-21T15:57:25.635Z,52.96
2023-05-21T16:02:27.603Z,53.00
2023-05-21T16:07:30.194Z,52.94
2023-05-21T16:12:31.904Z,52.36
2023-05-21T16:17:33.580Z,51.96
2023-05-21T16:22:35.265Z,51.82
2023-05-21T16:27:36.965Z,52.03
2023-05-21T16:32:39.560Z,52.58
2023-05-21T16:37:41.245Z,52.64
2023-05-21T16:42:43.480Z,53.39
2023-05-21T16:47:45.362Z,52.23
2023-05-21T16:52:47.072Z,50.10
2023-05-21T16:57:48.809Z,50.46
2023-05-21T17:02:50.863Z,49.90
2023-05-21T17:07:52.699Z,50.66
2023-05-21T17:12:54.369Z,50.65
2023-05-21T17:17:56.046Z,50.77
2023-05-21T17:22:57.786Z,51.19
2023-05-21T17:28:02.299Z,51.86
2023-05-21T17:33:04.113Z,52.07
2023-05-21T17:38:05.884Z,51.80
2023-05-21T17:43:07.688Z,52.64
2023-05-21T17:48:09.442Z,52.75
2023-05-21T17:53:12.930Z,52.94
2023-05-21T17:58:14.648Z,52.79
2023-05-21T18:03:17.370Z,53.32
2023-05-21T18:08:19.041Z,54.04
2023-05-21T18:13:20.665Z,54.34
2023-05-21T18:18:23.012Z,55.00
2023-05-21T18:23:24.861Z,55.51
2023-05-21T18:28:29.251Z,55.50
2023-05-21T18:33:31.256Z,55.79
2023-05-21T18:38:33.721Z,56.21
2023-05-21T18:43:35.628Z,56.72
2023-05-21T18:48:37.398Z,56.70
2023-05-21T18:53:39.217Z,56.51
2023-05-21T18:58:40.943Z,56.42
2023-05-21T19:03:42.658Z,56.60
2023-05-21T19:08:46.226Z,56.70
2023-05-21T19:13:48.205Z,57.01
2023-05-21T19:18:49.983Z,57.22
2023-05-21T19:23:53.773Z,57.52
2023-05-21T19:28:56.718Z,57.73
2023-05-21T19:33:58.476Z,58.23
2023-05-21T19:39:00.770Z,58.60
2023-05-21T19:44:02.441Z,58.96
2023-05-21T19:49:04.153Z,59.06
2023-05-21T19:54:05.931Z,59.46
2023-05-21T19:59:07.742Z,59.87
2023-05-21T20:04:10.304Z,59.90
2023-05-21T20:09:13.294Z,60.24
2023-05-21T20:14:15.623Z,60.20
2023-05-21T20:19:17.623Z,60.20
2023-05-21T20:24:19.566Z,60.72
2023-05-21T20:29:21.375Z,61.14
2023-05-21T20:34:23.090Z,61.35
2023-05-21T20:39:27.331Z,61.59
2023-05-21T20:44:29.323Z,61.88
2023-05-21T20:49:33.164Z,61.73
2023-05-21T20:54:35.434Z,62.00
2023-05-21T20:59:37.153Z,62.60
2023-05-21T21:04:39.744Z,62.43
2023-05-21T21:09:41.419Z,62.56
2023-05-21T21:14:43.080Z,62.84
2023-05-21T21:19:44.691Z,63.61
2023-05-21T21:24:47.300Z,64.69
2023-05-21T21:29:49.034Z,64.75
2023-05-21T21:34:50.903Z,65.08
2023-05-21T21:39:53.459Z,65.34
2023-05-21T21:44:55.111Z,65.99
2023-05-21T21:49:57.045Z,65.80
2023-05-21T21:54:58.649Z,66.32
2023-05-21T22:00:00.820Z,66.09
2023-05-21T22:05:02.796Z,67.07
2023-05-21T22:10:05.632Z,67.79
2023-05-21T22:15:08.549Z,68.58
2023-05-21T22:20:11.369Z,68.39
2023-05-21T22:25:13.162Z,68.51
2023-05-21T22:30:14.835Z,69.52
2023-05-21T22:35:16.693Z,69.27
2023-05-21T22:40:18.609Z,69.95
2023-05-21T22:45:21.821Z,70.50
2023-05-21T22:50:25.214Z,70.92
2023-05-21T22:55:26.947Z,71.97
2023-05-21T23:00:29.155Z,72.39
2023-05-21T23:05:31.006Z,71.92
2023-05-21T23:10:32.669Z,71.66
2023-05-21T23:15:34.308Z,71.97
2023-05-21T23:20:36.659Z,71.64
2023-05-21T23:25:38.642Z,71.64
2023-05-21T23:30:40.628Z,71.27
2023-05-21T23:35:42.524Z,70.95
2023-05-21T23:40:44.104Z,71.55
2023-05-21T23:45:45.929Z,72.07
2023-05-21T23:50:47.712Z,72.56
2023-05-21T23:55:49.365Z,72.64
